Terminal Aerodrome Forecast
Issued by NWS Greer, SC

Home | Current Version | Previous Version | Text Only | Print | Product List | Glossary On
Versions: 1 2 3 4 5 6 7 8 9 10 11 12 13 14 15 16 17 18 19 20 21 22 23 24 25 26 27 28 29 30 31 32 33 34 35 36 37 38 39 40 41 42 43 44 45 46 47 48 49 50
949
FTUS42 KGSP 220710 AAB
TAFCLT
TAF AMD
KCLT 220710Z 2207/2306 34003KT 5SM BR SCT002 OVC010
      TEMPO 2208/2212 1SM BR OVC002
     FM221300 34005KT P6SM FEW040
     FM221500 35010G18KT P6SM SCT250
     FM222100 02007KT P6SM BKN250=

USA.gov is the U.S. government's official web portal to all federal, state and local government web resources and services.